Time;durP1;ratioP1;P1;durP2;ratioP2;P2;SDS_P1;SDS_P2;PMS_P1;PMS_P2;Temp;Humidity;BMP_temperature;BMP_pressure;BME280_temperature;BME280_humidity;BME280_pressure;Samples;Min_cycle;Max_cycle;Signal;HPM_P1;HPM_P2
2022/05/28 00:01:00;;;;;;;2.33;1.25;;;10.40;99.90;;;;;;7386010;19;20370;-79
2022/05/28 00:03:26;;;;;;;5.30;1.50;;;10.50;99.90;;;;;;7385061;19;20380;-79
2022/05/28 00:05:52;;;;;;;3.13;1.27;;;10.50;99.90;;;;;;7377886;19;20372;-78
2022/05/28 00:08:17;;;;;;;2.35;1.30;;;10.50;99.90;;;;;;7375511;19;20919;-78
2022/05/28 00:10:43;;;;;;;2.10;1.27;;;10.50;99.90;;;;;;7379286;19;20337;-78
2022/05/28 00:13:09;;;;;;;1.58;1.20;;;10.50;99.90;;;;;;7383528;19;20356;-79
2022/05/28 00:15:35;;;;;;;3.00;1.58;;;10.40;99.90;;;;;;7384191;19;20384;-78
2022/05/28 00:18:01;;;;;;;1.83;1.30;;;10.40;99.90;;;;;;7384570;19;20377;-78
2022/05/28 00:20:26;;;;;;;1.80;1.40;;;10.40;99.90;;;;;;7385665;19;20372;-79
2022/05/28 00:22:52;;;;;;;2.67;1.50;;;10.40;99.90;;;;;;7382370;19;20349;-79
2022/05/28 00:25:18;;;;;;;3.03;1.50;;;10.40;99.90;;;;;;7387045;19;20363;-80
2022/05/28 00:27:43;;;;;;;3.30;1.40;;;10.40;99.90;;;;;;7387226;19;20364;-79
2022/05/28 00:30:12;;;;;;;1.83;1.13;;;10.30;99.90;;;;;;7387443;19;20375;-77
2022/05/28 00:32:38;;;;;;;2.30;1.23;;;10.30;99.90;;;;;;7381972;19;20349;-79
2022/05/28 00:35:04;;;;;;;3.27;1.40;;;10.30;99.90;;;;;;7385524;19;20405;-79
2022/05/28 00:37:30;;;;;;;1.67;1.17;;;10.20;99.90;;;;;;7381990;19;20360;-79
2022/05/28 00:39:56;;;;;;;3.37;1.20;;;10.10;99.90;;;;;;7383005;19;20434;-79
2022/05/28 00:42:21;;;;;;;3.40;1.40;;;10.10;99.90;;;;;;7378975;19;20356;-80
2022/05/28 00:44:47;;;;;;;2.77;1.27;;;9.90;99.90;;;;;;7385930;19;20415;-77
2022/05/28 00:47:12;;;;;;;3.20;1.13;;;9.90;99.90;;;;;;7378158;19;20333;-79
2022/05/28 00:49:38;;;;;;;2.05;0.95;;;9.80;99.90;;;;;;7384250;19;20380;-79
2022/05/28 00:52:07;;;;;;;1.30;1.07;;;9.70;99.90;;;;;;7375624;19;20361;-79
2022/05/28 00:54:35;;;;;;;2.60;1.30;;;9.60;99.90;;;;;;7379456;19;20361;-78
2022/05/28 00:57:02;;;;;;;1.42;0.90;;;9.50;99.90;;;;;;7377387;19;20394;-78
2022/05/28 00:59:27;;;;;;;2.08;1.25;;;9.50;99.90;;;;;;7384152;19;20360;-79
2022/05/28 01:01:56;;;;;;;1.90;1.30;;;9.50;99.90;;;;;;7377419;19;20378;-78
2022/05/28 01:04:50;;;;;;;2.33;1.15;;;9.50;99.90;;;;;;7382884;19;20384;-78
2022/05/28 01:07:35;;;;;;;1.95;1.17;;;9.40;99.90;;;;;;7371670;19;20381;-79
2022/05/28 01:10:17;;;;;;;3.13;1.05;;;9.40;99.90;;;;;;7380882;19;20411;-79
2022/05/28 01:13:14;;;;;;;2.13;1.10;;;9.40;99.90;;;;;;7376540;19;20372;-79
2022/05/28 01:15:46;;;;;;;1.90;1.00;;;9.40;99.90;;;;;;7380944;19;20378;-78
2022/05/28 01:18:37;;;;;;;1.85;1.00;;;9.40;99.90;;;;;;7379829;19;20353;-79
2022/05/28 01:21:15;;;;;;;1.60;1.05;;;9.30;99.90;;;;;;7377771;19;20364;-78
2022/05/28 01:23:52;;;;;;;1.40;1.30;;;9.30;99.90;;;;;;7382415;19;20949;-79
2022/05/28 01:26:51;;;;;;;1.50;1.17;;;9.30;99.90;;;;;;7375714;19;20372;-78
2022/05/28 01:29:17;;;;;;;1.90;1.27;;;9.20;99.90;;;;;;7378618;19;20357;-78
2022/05/28 01:31:43;;;;;;;2.03;1.10;;;9.20;99.90;;;;;;7373865;19;20351;-79
2022/05/28 01:34:08;;;;;;;1.83;1.30;;;9.20;99.90;;;;;;7379683;19;20360;-79
2022/05/28 01:36:34;;;;;;;2.83;1.33;;;9.20;99.90;;;;;;7375552;19;20718;-79
2022/05/28 01:39:00;;;;;;;1.00;1.00;;;9.10;99.90;;;;;;7380517;19;20919;-79
2022/05/28 01:41:25;;;;;;;1.37;1.00;;;9.20;99.90;;;;;;7377987;19;20349;-79
2022/05/28 01:43:51;;;;;;;2.47;1.35;;;9.10;99.90;;;;;;7382767;19;21317;-79
2022/05/28 01:46:19;;;;;;;1.33;1.10;;;9.10;99.90;;;;;;7380736;19;20356;-79
2022/05/28 01:48:45;;;;;;;2.65;1.23;;;9.00;99.90;;;;;;7384917;19;20410;-79
2022/05/28 01:51:11;;;;;;;2.77;1.20;;;9.00;99.90;;;;;;7379238;19;20352;-79
2022/05/28 01:56:21;;;;;;;1.95;1.05;;;9.00;99.90;;;;;;7376363;19;20428;-79
2022/05/28 01:58:47;;;;;;;1.90;1.20;;;9.00;99.90;;;;;;7367954;19;20397;-78
2022/05/28 02:01:12;;;;;;;1.83;1.30;;;8.90;99.90;;;;;;7377623;19;20381;-79
2022/05/28 02:03:40;;;;;;;2.53;1.27;;;9.00;99.90;;;;;;7375189;19;20351;-79
2022/05/28 02:06:05;;;;;;;2.58;1.10;;;8.90;99.90;;;;;;7354558;19;20815;-79
2022/05/28 02:08:35;;;;;;;3.30;1.20;;;8.80;99.90;;;;;;7362835;19;20349;-78
2022/05/28 02:11:38;;;;;;;1.15;1.00;;;8.80;99.90;;;;;;7364125;19;20376;-79
2022/05/28 02:14:29;;;;;;;1.73;1.20;;;8.80;99.90;;;;;;7381545;19;20362;-78
2022/05/28 02:17:02;;;;;;;2.72;1.40;;;8.80;99.90;;;;;;7388832;19;20356;-78
2022/05/28 02:19:34;;;;;;;2.25;1.23;;;8.80;99.90;;;;;;7393346;19;20361;-79
2022/05/28 02:22:31;;;;;;;1.70;1.33;;;8.80;99.90;;;;;;7390743;19;20364;-79
2022/05/28 02:25:00;;;;;;;1.95;1.15;;;8.80;99.90;;;;;;7390812;19;20360;-79
2022/05/28 02:27:25;;;;;;;2.53;1.10;;;8.80;99.90;;;;;;7384193;19;20368;-80
2022/05/28 02:29:51;;;;;;;3.00;1.50;;;8.70;99.90;;;;;;7395017;19;20387;-79
2022/05/28 02:32:21;;;;;;;2.20;1.40;;;8.70;99.90;;;;;;7392293;19;20385;-79
2022/05/28 02:34:47;;;;;;;2.08;1.33;;;8.70;99.90;;;;;;7396158;19;20364;-79
2022/05/28 02:37:14;;;;;;;3.00;1.50;;;8.70;99.90;;;;;;7387181;19;20353;-79
2022/05/28 02:39:39;;;;;;;2.65;1.42;;;8.90;99.90;;;;;;7398207;19;20357;-78
2022/05/28 02:42:05;;;;;;;4.93;1.67;;;8.80;99.90;;;;;;7388671;19;20359;-79
2022/05/28 02:44:31;;;;;;;2.10;1.50;;;8.80;99.90;;;;;;7397646;19;20353;-80
2022/05/28 02:46:56;;;;;;;2.20;1.50;;;8.80;99.90;;;;;;7398174;19;20372;-79
2022/05/28 02:49:23;;;;;;;2.53;1.38;;;8.80;99.90;;;;;;7406594;19;20373;-79
2022/05/28 02:51:49;;;;;;;1.67;1.37;;;8.90;99.90;;;;;;7398727;19;20381;-78
2022/05/28 02:54:15;;;;;;;3.17;1.17;;;8.80;99.90;;;;;;7403382;19;20356;-78
2022/05/28 02:56:40;;;;;;;3.05;1.30;;;8.80;99.90;;;;;;7401109;19;21045;-79
2022/05/28 02:59:06;;;;;;;4.33;1.57;;;8.80;99.90;;;;;;7398261;19;20344;-79
2022/05/28 03:01:33;;;;;;;3.58;1.40;;;8.80;99.90;;;;;;7397494;19;20356;-79
2022/05/28 03:03:58;;;;;;;2.38;1.30;;;8.80;99.90;;;;;;7400967;19;20393;-79
2022/05/28 03:06:24;;;;;;;2.80;1.50;;;8.70;99.90;;;;;;7397093;19;20371;-79
2022/05/28 03:08:50;;;;;;;1.83;1.15;;;8.70;99.90;;;;;;7401539;19;20440;-79
2022/05/28 03:11:15;;;;;;;2.77;1.43;;;8.70;99.90;;;;;;7399311;19;20388;-79
2022/05/28 03:13:41;;;;;;;3.33;1.52;;;8.70;99.90;;;;;;7403745;19;20368;-80
2022/05/28 03:16:07;;;;;;;1.67;1.30;;;8.70;99.90;;;;;;7407440;19;20382;-80
2022/05/28 03:18:33;;;;;;;1.27;1.15;;;8.60;99.90;;;;;;7396770;19;20758;-80
2022/05/28 03:20:59;;;;;;;1.88;1.40;;;8.70;99.90;;;;;;7410914;19;20368;-78
2022/05/28 03:23:24;;;;;;;2.90;1.37;;;8.60;99.90;;;;;;7415365;19;20365;-79
2022/05/28 03:25:50;;;;;;;2.33;1.27;;;8.70;99.90;;;;;;7411863;19;20708;-79
2022/05/28 03:28:16;;;;;;;2.53;1.13;;;8.70;99.90;;;;;;7415541;19;20344;-78
2022/05/28 03:30:41;;;;;;;2.65;1.25;;;8.70;99.90;;;;;;7416285;19;20349;-79
2022/05/28 03:33:07;;;;;;;2.10;1.40;;;8.70;99.90;;;;;;7413725;19;20364;-77
2022/05/28 03:35:33;;;;;;;3.75;1.55;;;8.70;99.90;;;;;;7417122;19;20381;-79
2022/05/28 03:37:59;;;;;;;3.17;1.13;;;8.70;99.90;;;;;;7412214;19;20352;-79
2022/05/28 03:40:24;;;;;;;1.83;1.20;;;8.80;99.90;;;;;;7414810;19;20348;-78
2022/05/28 03:42:50;;;;;;;1.80;1.10;;;8.80;99.90;;;;;;7415675;19;20348;-78
2022/05/28 03:45:15;;;;;;;2.20;1.20;;;8.80;99.90;;;;;;7415681;19;20364;-78
2022/05/28 03:47:41;;;;;;;3.63;1.27;;;8.80;99.90;;;;;;7410062;19;20378;-79
2022/05/28 03:50:07;;;;;;;2.83;1.17;;;8.80;99.90;;;;;;7415779;19;20377;-78
2022/05/28 03:52:33;;;;;;;2.33;1.27;;;8.90;99.90;;;;;;7413584;19;20364;-79
2022/05/28 03:54:58;;;;;;;2.63;1.40;;;9.00;99.90;;;;;;7395803;19;20356;-78
2022/05/28 03:57:26;;;;;;;2.08;1.27;;;9.00;99.90;;;;;;7412185;19;20430;-77
2022/05/28 03:59:52;;;;;;;2.03;1.20;;;9.00;99.90;;;;;;7414112;19;20345;-78
2022/05/28 04:02:17;;;;;;;2.25;1.38;;;9.10;99.90;;;;;;7413719;19;20402;-78
2022/05/28 04:04:43;;;;;;;1.83;1.17;;;9.10;99.90;;;;;;7416867;19;20356;-78
2022/05/28 04:07:10;;;;;;;1.87;1.10;;;9.10;99.90;;;;;;7412514;19;20368;-78
2022/05/28 04:09:35;;;;;;;3.17;1.40;;;9.20;99.90;;;;;;7416918;19;20328;-79
2022/05/28 04:12:01;;;;;;;2.70;1.10;;;9.30;99.90;;;;;;7411968;19;20356;-78
2022/05/28 04:14:26;;;;;;;3.63;1.40;;;9.30;99.90;;;;;;7417110;19;20380;-79
2022/05/28 04:16:52;;;;;;;1.40;1.30;;;9.40;99.90;;;;;;7411804;19;20357;-78
2022/05/28 04:19:17;;;;;;;2.17;1.10;;;9.40;99.90;;;;;;7417969;19;20353;-79
2022/05/28 04:21:43;;;;;;;3.45;1.27;;;9.40;99.90;;;;;;7413790;19;20359;-78
2022/05/28 04:24:09;;;;;;;2.80;1.30;;;9.30;99.90;;;;;;7417595;19;20358;-78
2022/05/28 04:26:34;;;;;;;2.05;1.30;;;9.40;99.90;;;;;;7413056;19;20376;-78
2022/05/28 04:29:00;;;;;;;1.90;1.30;;;9.40;99.90;;;;;;7411505;19;20413;-78
2022/05/28 04:31:26;;;;;;;2.30;1.30;;;9.40;99.90;;;;;;7412202;19;20381;-78
2022/05/28 04:33:52;;;;;;;1.33;1.20;;;9.50;99.90;;;;;;7411243;19;20360;-78
2022/05/28 04:36:17;;;;;;;2.40;1.20;;;9.50;99.90;;;;;;7411671;19;20364;-79
2022/05/28 04:38:43;;;;;;;1.25;1.10;;;9.60;99.90;;;;;;7415449;19;20361;-79
2022/05/28 04:41:09;;;;;;;2.30;1.40;;;9.70;99.90;;;;;;7415179;19;20341;-78
2022/05/28 04:43:34;;;;;;;3.47;1.40;;;9.80;99.90;;;;;;7415109;19;20361;-79
2022/05/28 04:46:00;;;;;;;1.40;1.20;;;9.80;99.90;;;;;;7411524;19;20336;-77
2022/05/28 04:48:26;;;;;;;4.78;1.48;;;9.90;99.90;;;;;;7411231;19;20405;-78
2022/05/28 04:50:51;;;;;;;3.07;1.37;;;9.90;99.90;;;;;;7406338;19;20385;-78
2022/05/28 04:53:17;;;;;;;1.60;1.23;;;10.00;99.90;;;;;;7406083;19;20428;-78
2022/05/28 04:55:45;;;;;;;1.97;1.33;;;10.10;99.90;;;;;;7406281;19;20356;-78
2022/05/28 04:58:12;;;;;;;1.92;1.20;;;10.20;99.90;;;;;;7406980;19;20353;-79
2022/05/28 05:00:38;;;;;;;2.42;1.25;;;10.40;99.90;;;;;;7409041;19;20325;-79
2022/05/28 05:03:03;;;;;;;3.60;1.38;;;10.50;99.90;;;;;;7408567;19;20379;-79
2022/05/28 05:05:29;;;;;;;1.70;1.23;;;10.60;99.90;;;;;;7412250;19;20327;-77
2022/05/28 05:07:55;;;;;;;3.80;1.40;;;10.60;99.90;;;;;;7409662;19;20365;-78
2022/05/28 05:10:20;;;;;;;2.63;1.20;;;10.60;99.90;;;;;;7412440;19;20381;-78
2022/05/28 05:12:46;;;;;;;1.30;1.10;;;10.60;99.90;;;;;;7402352;19;20361;-79
2022/05/28 05:15:12;;;;;;;2.72;1.27;;;10.50;99.90;;;;;;7407769;19;20373;-77
2022/05/28 05:17:37;;;;;;;2.28;1.30;;;10.60;99.90;;;;;;7404997;19;20376;-78
2022/05/28 05:20:04;;;;;;;3.35;1.08;;;10.60;99.90;;;;;;7410559;19;20448;-79
2022/05/28 05:22:29;;;;;;;3.00;1.45;;;10.60;99.90;;;;;;7404907;19;20378;-79
2022/05/28 05:24:55;;;;;;;1.88;1.25;;;10.70;99.90;;;;;;7409604;19;20369;-79
2022/05/28 05:27:21;;;;;;;2.53;1.07;;;10.70;99.90;;;;;;7403606;19;20349;-78
2022/05/28 05:29:46;;;;;;;1.90;1.42;;;10.70;99.90;;;;;;7405120;19;20386;-79
2022/05/28 05:32:12;;;;;;;2.83;1.27;;;10.60;99.90;;;;;;7403753;19;20357;-78
2022/05/28 05:34:37;;;;;;;2.45;1.27;;;10.60;99.90;;;;;;7410647;19;20368;-79
2022/05/28 05:37:04;;;;;;;2.30;1.30;;;10.60;99.90;;;;;;7400194;19;21315;-79
2022/05/28 05:39:30;;;;;;;3.00;1.30;;;10.60;99.90;;;;;;7405538;19;20365;-78
2022/05/28 05:41:56;;;;;;;1.20;1.10;;;10.80;99.90;;;;;;7404950;19;20373;-78
2022/05/28 05:44:21;;;;;;;1.85;1.23;;;10.90;99.90;;;;;;7410685;19;20941;-78
2022/05/28 05:46:47;;;;;;;2.97;1.37;;;11.00;99.90;;;;;;7408637;19;20414;-78
2022/05/28 05:49:12;;;;;;;2.77;1.00;;;11.10;99.90;;;;;;7406436;19;20396;-79
2022/05/28 05:51:41;;;;;;;1.83;1.23;;;10.80;99.90;;;;;;7399627;19;20370;-78
2022/05/28 05:54:07;;;;;;;1.57;1.10;;;10.90;99.90;;;;;;7404951;19;20353;-78
2022/05/28 05:56:32;;;;;;;4.38;1.40;;;10.90;99.90;;;;;;7403644;19;20356;-79
2022/05/28 05:58:58;;;;;;;2.67;1.33;;;10.90;99.90;;;;;;7396784;19;20337;-79
2022/05/28 06:01:25;;;;;;;3.15;1.30;;;11.10;99.90;;;;;;7400902;19;20329;-78
2022/05/28 06:03:51;;;;;;;1.95;1.05;;;11.10;99.90;;;;;;7409543;19;20353;-79
2022/05/28 06:06:17;;;;;;;2.40;1.37;;;11.30;99.90;;;;;;7409898;19;20378;-78
2022/05/28 06:08:43;;;;;;;2.42;1.30;;;11.20;99.90;;;;;;7403773;19;20367;-78
2022/05/28 06:11:09;;;;;;;2.57;1.20;;;11.20;99.90;;;;;;7388054;19;20356;-79
2022/05/28 06:13:35;;;;;;;2.65;1.20;;;11.10;99.90;;;;;;7382705;19;20364;-79
2022/05/28 06:16:01;;;;;;;2.38;1.30;;;11.10;99.90;;;;;;7377930;19;20397;-79
2022/05/28 06:18:27;;;;;;;2.20;1.80;;;11.00;99.90;;;;;;7392038;19;20405;-79
2022/05/28 06:20:55;;;;;;;2.83;1.23;;;10.90;99.90;;;;;;7387683;19;20344;-79
2022/05/28 06:23:21;;;;;;;2.47;1.45;;;11.00;99.90;;;;;;7378874;19;20457;-81
2022/05/28 06:25:48;;;;;;;2.63;1.67;;;10.90;99.90;;;;;;7375613;19;20379;-79
2022/05/28 06:28:14;;;;;;;2.70;1.60;;;10.90;99.90;;;;;;7380611;19;20361;-79
2022/05/28 06:30:40;;;;;;;2.13;1.40;;;10.80;99.90;;;;;;7375742;19;20330;-79
2022/05/28 06:33:06;;;;;;;2.75;1.50;;;10.60;99.90;;;;;;7381176;19;21110;-77
2022/05/28 06:35:32;;;;;;;5.07;1.50;;;10.50;99.90;;;;;;7379190;19;20356;-79
2022/05/28 06:37:58;;;;;;;4.63;1.90;;;10.40;99.90;;;;;;7378841;19;20349;-79
2022/05/28 06:40:24;;;;;;;2.33;1.53;;;10.20;99.90;;;;;;7377006;19;20401;-77
2022/05/28 06:42:51;;;;;;;1.45;1.30;;;10.20;99.90;;;;;;7387898;19;20360;-79
2022/05/28 06:45:17;;;;;;;3.25;1.50;;;10.10;99.90;;;;;;7411313;19;20534;-79
2022/05/28 06:47:43;;;;;;;3.05;1.42;;;10.10;99.90;;;;;;7410944;19;20367;-79
2022/05/28 06:52:53;;;;;;;2.97;1.30;;;10.10;99.90;;;;;;7412500;19;20377;-80
2022/05/28 06:55:19;;;;;;;2.13;1.37;;;10.40;99.90;;;;;;7419573;19;20379;-78
2022/05/28 06:57:44;;;;;;;3.45;1.63;;;10.60;99.90;;;;;;7417229;19;20371;-79
2022/05/28 07:00:10;;;;;;;2.67;1.37;;;10.70;99.90;;;;;;7421121;19;20337;-80
2022/05/28 07:02:36;;;;;;;1.33;1.23;;;10.90;99.90;;;;;;7415446;19;20369;-79
2022/05/28 07:05:01;;;;;;;2.43;1.20;;;11.00;99.90;;;;;;7422651;19;20365;-79
2022/05/28 07:07:27;;;;;;;1.88;1.15;;;11.10;99.90;;;;;;7418652;19;20371;-79
2022/05/28 07:09:52;;;;;;;1.50;1.03;;;11.30;99.90;;;;;;7420977;19;20352;-79
2022/05/28 07:12:18;;;;;;;2.10;1.35;;;11.20;99.90;;;;;;7415849;19;20404;-79
2022/05/28 07:14:44;;;;;;;1.47;1.10;;;11.20;99.90;;;;;;7420131;19;20352;-77
2022/05/28 07:17:09;;;;;;;0.98;0.90;;;11.10;99.90;;;;;;7415962;19;20380;-77
2022/05/28 07:19:35;;;;;;;3.13;1.30;;;11.20;99.90;;;;;;7420981;19;20344;-78
2022/05/28 07:22:00;;;;;;;1.43;1.17;;;11.10;99.90;;;;;;7410454;19;20349;-79
2022/05/28 07:24:26;;;;;;;1.63;0.90;;;11.10;99.90;;;;;;7384851;19;20336;-79
2022/05/28 07:26:52;;;;;;;4.10;1.00;;;11.10;99.90;;;;;;7385954;19;20425;-79
2022/05/28 07:29:18;;;;;;;1.65;1.13;;;11.30;99.90;;;;;;7391079;19;20370;-79
2022/05/28 07:31:43;;;;;;;1.67;1.00;;;11.40;99.90;;;;;;7385106;19;20364;-78
2022/05/28 07:34:09;;;;;;;1.10;1.00;;;11.50;99.90;;;;;;7390541;19;20357;-79
2022/05/28 07:36:35;;;;;;;1.53;1.00;;;11.60;99.90;;;;;;7389697;19;20712;-79
2022/05/28 07:39:02;;;;;;;0.90;0.90;;;11.50;99.90;;;;;;7400826;19;20376;-79
2022/05/28 07:41:27;;;;;;;1.58;1.02;;;11.50;99.90;;;;;;7394879;19;20356;-79
2022/05/28 07:43:54;;;;;;;1.90;1.23;;;11.60;99.90;;;;;;7391377;19;20420;-78
2022/05/28 07:46:22;;;;;;;1.63;1.52;;;11.60;99.90;;;;;;7394833;19;20360;-81
2022/05/28 07:48:48;;;;;;;2.08;1.00;;;11.30;99.90;;;;;;7397883;19;20416;-79
2022/05/28 07:51:14;;;;;;;1.38;1.00;;;11.60;99.90;;;;;;7399758;19;20365;-80
2022/05/28 07:53:40;;;;;;;1.47;1.10;;;12.10;99.90;;;;;;7399275;19;20416;-79
2022/05/28 07:56:05;;;;;;;2.38;1.30;;;12.30;99.90;;;;;;7402012;19;20363;-79
2022/05/28 07:58:31;;;;;;;1.97;1.27;;;12.50;99.90;;;;;;7405379;19;20361;-79
2022/05/28 08:00:57;;;;;;;2.00;1.20;;;12.60;99.90;;;;;;7401774;19;20356;-80
2022/05/28 08:03:23;;;;;;;1.50;0.87;;;12.40;99.90;;;;;;7404818;19;20344;-81
2022/05/28 08:05:49;;;;;;;2.67;1.35;;;12.20;99.90;;;;;;7402282;19;20683;-79
2022/05/28 08:08:15;;;;;;;1.93;1.20;;;12.50;99.90;;;;;;7411374;19;20356;-81
2022/05/28 08:10:41;;;;;;;2.13;1.25;;;12.70;99.90;;;;;;7410168;19;20388;-81
2022/05/28 08:13:08;;;;;;;1.95;1.10;;;13.00;99.90;;;;;;7396019;19;20372;-82
2022/05/28 08:15:35;;;;;;;2.63;1.10;;;13.10;99.90;;;;;;7402401;19;20360;-85
2022/05/28 08:18:00;;;;;;;1.67;1.30;;;13.10;99.90;;;;;;7396541;19;20356;-84
2022/05/28 08:23:11;;;;;;;2.78;1.30;;;12.80;99.90;;;;;;7400616;19;20376;-80
2022/05/28 08:25:39;;;;;;;1.48;0.90;;;12.90;99.90;;;;;;7381111;19;20356;-81
2022/05/28 08:28:06;;;;;;;1.87;1.20;;;12.90;99.90;;;;;;7392014;19;20360;-84
2022/05/28 08:30:32;;;;;;;1.27;1.10;;;12.80;99.90;;;;;;7407635;19;20340;-85
2022/05/28 08:32:57;;;;;;;2.60;1.42;;;12.90;99.90;;;;;;7414800;19;20364;-87
2022/05/28 08:35:24;;;;;;;2.50;1.27;;;12.80;99.90;;;;;;7424381;19;20365;-88
2022/05/28 08:37:49;;;;;;;1.60;1.10;;;12.80;99.90;;;;;;7421476;19;20373;-89
2022/05/28 08:40:15;;;;;;;2.00;1.20;;;12.80;99.90;;;;;;7413151;19;20373;-72
2022/05/28 08:42:41;;;;;;;2.20;1.30;;;12.80;99.90;;;;;;7374315;19;20364;-72
2022/05/28 08:45:06;;;;;;;3.50;1.20;;;13.00;99.90;;;;;;7376801;19;20388;-73
2022/05/28 08:47:42;;;;;;;3.40;1.30;;;13.00;99.90;;;;;;7376650;19;20367;-73
2022/05/28 08:50:10;;;;;;;1.98;1.27;;;13.10;99.90;;;;;;7378831;19;20341;-72
2022/05/28 08:52:53;;;;;;;2.17;1.30;;;13.00;99.90;;;;;;7375302;19;20863;-72
2022/05/28 08:55:21;;;;;;;1.15;1.00;;;12.80;99.90;;;;;;7377654;19;20844;-72
2022/05/28 08:58:06;;;;;;;1.88;1.10;;;12.80;99.90;;;;;;7372590;19;20356;-73
2022/05/28 09:00:51;;;;;;;1.27;1.00;;;12.80;99.90;;;;;;7376291;19;20324;-73
2022/05/28 09:03:45;;;;;;;3.92;1.35;;;13.10;99.90;;;;;;7377645;19;20368;-73
2022/05/28 09:06:16;;;;;;;1.25;1.10;;;13.60;99.90;;;;;;7377918;19;20392;-72
2022/05/28 09:08:46;;;;;;;2.43;1.30;;;14.20;99.90;;;;;;7377626;19;20356;-73
2022/05/28 09:11:16;;;;;;;1.90;1.30;;;14.20;99.90;;;;;;7368647;19;20442;-74
2022/05/28 09:13:47;;;;;;;3.07;1.07;;;13.90;99.90;;;;;;7371043;19;20379;-72
2022/05/28 09:16:29;;;;;;;2.90;1.35;;;13.70;99.90;;;;;;7374226;19;20373;-73
2022/05/28 09:19:01;;;;;;;1.67;1.20;;;13.70;99.90;;;;;;7372200;19;20381;-73
2022/05/28 09:21:26;;;;;;;5.55;1.48;;;13.50;99.90;;;;;;7370998;19;20337;-72
2022/05/28 09:23:58;;;;;;;2.70;1.30;;;13.50;99.90;;;;;;7372584;19;20421;-72
2022/05/28 09:26:31;;;;;;;4.10;1.30;;;13.40;99.90;;;;;;7372057;19;20353;-72
2022/05/28 09:29:07;;;;;;;2.53;1.27;;;13.50;99.90;;;;;;7371164;19;20361;-72
2022/05/28 09:31:58;;;;;;;1.75;1.00;;;13.70;99.90;;;;;;7371324;19;20387;-72
2022/05/28 09:34:30;;;;;;;2.45;1.20;;;13.60;99.90;;;;;;7372530;19;20345;-73
2022/05/28 09:37:02;;;;;;;5.18;1.90;;;14.00;99.90;;;;;;7374256;19;20360;-72
2022/05/28 09:39:59;;;;;;;2.95;2.03;;;14.30;99.90;;;;;;7367381;19;20483;-73
2022/05/28 09:42:47;;;;;;;3.50;1.42;;;14.60;99.90;;;;;;7370092;19;20367;-73
2022/05/28 09:45:22;;;;;;;1.77;1.40;;;15.00;99.90;;;;;;7372486;19;20365;-72
2022/05/28 09:47:51;;;;;;;1.65;1.40;;;15.50;99.90;;;;;;7368136;19;20372;-72
2022/05/28 09:50:26;;;;;;;1.80;1.20;;;15.40;99.90;;;;;;7370633;19;20374;-73
2022/05/28 09:55:56;;;;;;;2.33;1.50;;;14.90;99.90;;;;;;7367128;19;20365;-76
2022/05/28 09:58:27;;;;;;;3.50;1.20;;;14.90;99.90;;;;;;7366164;19;20385;-73
2022/05/28 10:01:11;;;;;;;3.93;1.50;;;14.80;99.90;;;;;;7367485;19;20355;-73
2022/05/28 10:06:26;;;;;;;3.00;1.60;;;14.90;99.90;;;;;;7369392;19;20597;-73
2022/05/28 10:08:51;;;;;;;2.50;1.27;;;15.10;99.90;;;;;;7363179;19;20906;-72
2022/05/28 10:11:22;;;;;;;2.13;1.17;;;14.90;99.90;;;;;;7368921;19;20355;-74
2022/05/28 10:13:56;;;;;;;2.93;1.37;;;14.80;99.90;;;;;;7366530;19;20648;-71
2022/05/28 10:16:33;;;;;;;4.17;1.40;;;14.50;99.90;;;;;;7367146;19;20357;-72
2022/05/28 10:18:59;;;;;;;1.80;1.40;;;14.70;99.90;;;;;;7364305;19;20891;-72
2022/05/28 10:21:37;;;;;;;3.03;1.20;;;15.10;99.90;;;;;;7366228;19;20367;-72
2022/05/28 10:24:04;;;;;;;2.50;1.33;;;15.60;99.90;;;;;;7368103;19;21313;-72
2022/05/28 10:26:36;;;;;;;2.10;1.35;;;15.80;99.90;;;;;;7367200;19;20376;-73
2022/05/28 10:29:16;;;;;;;2.40;1.27;;;15.80;99.90;;;;;;7361739;19;20365;-72
2022/05/28 10:31:44;;;;;;;1.63;1.20;;;15.90;99.90;;;;;;7364603;19;20360;-72
2022/05/28 10:34:32;;;;;;;2.03;1.40;;;16.00;99.90;;;;;;7355074;19;20360;-73
2022/05/28 10:37:12;;;;;;;4.93;1.35;;;15.90;99.90;;;;;;7364031;19;20404;-72
2022/05/28 10:39:38;;;;;;;2.88;1.20;;;15.40;99.90;;;;;;7364718;19;20367;-72
2022/05/28 10:42:06;;;;;;;2.78;1.30;;;15.90;99.90;;;;;;7363480;19;20352;-73
2022/05/28 10:44:32;;;;;;;1.38;0.90;;;15.70;99.90;;;;;;7366510;19;20378;-73
2022/05/28 10:47:15;;;;;;;1.52;1.20;;;15.30;99.90;;;;;;7367514;19;20372;-74
2022/05/28 10:50:19;;;;;;;3.50;1.52;;;15.20;99.90;;;;;;7369260;19;20349;-73
2022/05/28 10:53:07;;;;;;;2.65;1.40;;;16.40;99.90;;;;;;7365300;19;20378;-73
2022/05/28 10:55:51;;;;;;;2.05;1.40;;;17.20;99.90;;;;;;7366588;19;20369;-73
2022/05/28 10:58:26;;;;;;;2.33;1.42;;;17.00;99.90;;;;;;7362637;19;20368;-73
2022/05/28 11:01:02;;;;;;;4.50;1.58;;;16.00;99.90;;;;;;7364395;19;20412;-72
2022/05/28 11:03:43;;;;;;;3.05;1.48;;;15.30;99.90;;;;;;7362868;19;20719;-72
2022/05/28 11:06:24;;;;;;;2.00;1.42;;;15.90;99.90;;;;;;7364026;19;20433;-72
2022/05/28 11:09:27;;;;;;;3.03;1.38;;;15.80;99.90;;;;;;7359715;19;20504;-73
2022/05/28 11:12:07;;;;;;;1.50;1.40;;;15.60;99.90;;;;;;7369068;19;20364;-73
2022/05/28 11:14:56;;;;;;;3.03;1.40;;;15.30;99.90;;;;;;7365464;19;20733;-74
2022/05/28 11:17:34;;;;;;;2.20;1.30;;;15.30;99.90;;;;;;7364350;19;20365;-73
2022/05/28 11:20:28;;;;;;;3.30;1.40;;;16.10;99.90;;;;;;7368077;19;20428;-73
2022/05/28 11:23:11;;;;;;;1.80;1.10;;;16.80;99.90;;;;;;7367145;19;20356;-72
2022/05/28 11:26:09;;;;;;;2.30;1.20;;;17.00;99.90;;;;;;7365796;19;20364;-72
2022/05/28 11:28:58;;;;;;;1.60;1.15;;;17.50;99.90;;;;;;7363031;19;20391;-73
2022/05/28 11:31:48;;;;;;;3.88;1.58;;;17.00;99.90;;;;;;7363007;19;20357;-73
2022/05/28 11:34:23;;;;;;;2.67;1.90;;;16.30;99.90;;;;;;7370350;19;20344;-72
2022/05/28 11:36:56;;;;;;;3.17;1.27;;;15.80;99.90;;;;;;7373989;19;20838;-72
2022/05/28 11:39:42;;;;;;;1.83;1.10;;;15.90;99.90;;;;;;7371939;19;21247;-73
2022/05/28 11:42:29;;;;;;;1.33;1.00;;;15.70;99.90;;;;;;7370382;19;20364;-73
2022/05/28 11:44:56;;;;;;;2.50;1.20;;;16.10;99.90;;;;;;7368134;19;22221;-72
2022/05/28 11:47:31;;;;;;;1.83;1.25;;;16.30;99.90;;;;;;7373771;19;20380;-72
2022/05/28 11:53:35;;;;;;;1.83;1.10;;;16.30;99.90;;;;;;7373214;19;20838;-73
2022/05/28 11:56:06;;;;;;;1.55;1.10;;;16.30;99.90;;;;;;7372530;19;20349;-73
2022/05/28 11:58:38;;;;;;;1.77;1.20;;;16.60;99.90;;;;;;7372480;19;20380;-74
2022/05/28 12:01:10;;;;;;;1.90;1.37;;;16.60;99.90;;;;;;7371915;19;20344;-73
2022/05/28 12:03:36;;;;;;;2.15;1.10;;;16.40;99.90;;;;;;7374326;19;20430;-73
2022/05/28 12:06:15;;;;;;;3.43;1.03;;;16.40;99.90;;;;;;7372034;19;20419;-72
2022/05/28 12:08:42;;;;;;;1.63;1.10;;;16.40;99.90;;;;;;7369592;19;20377;-74
2022/05/28 12:11:20;;;;;;;2.58;1.33;;;16.80;99.90;;;;;;7365787;19;20355;-73
2022/05/28 12:13:53;;;;;;;2.33;1.23;;;17.10;99.90;;;;;;7372899;19;20479;-72
2022/05/28 12:16:21;;;;;;;2.33;1.23;;;16.80;99.90;;;;;;7374429;19;20373;-73
2022/05/28 12:18:59;;;;;;;2.90;1.30;;;16.10;99.90;;;;;;7368614;19;20385;-74
2022/05/28 12:21:26;;;;;;;2.22;1.38;;;15.40;99.90;;;;;;7368627;19;20389;-71
2022/05/28 12:24:11;;;;;;;2.67;1.30;;;14.20;99.90;;;;;;7371002;19;20986;-73
2022/05/28 12:27:00;;;;;;;2.08;1.35;;;13.90;99.90;;;;;;7372132;19;20879;-73
2022/05/28 12:29:48;;;;;;;2.97;1.30;;;13.90;99.90;;;;;;7371175;19;20360;-73
2022/05/28 12:32:19;;;;;;;1.38;1.13;;;13.50;99.90;;;;;;7368901;19;20344;-72
2022/05/28 12:35:01;;;;;;;1.65;1.30;;;13.60;99.90;;;;;;7371125;19;20371;-72
2022/05/28 12:37:34;;;;;;;2.58;1.33;;;13.70;99.90;;;;;;7371724;19;20352;-72
2022/05/28 12:40:29;;;;;;;2.08;1.00;;;14.00;99.90;;;;;;7371172;19;20367;-72
2022/05/28 12:42:59;;;;;;;2.38;1.30;;;14.90;99.90;;;;;;7369597;19;20396;-72
2022/05/28 12:45:24;;;;;;;2.17;1.13;;;16.00;99.90;;;;;;7371324;19;20360;-73
2022/05/28 12:47:50;;;;;;;1.42;1.27;;;16.80;99.90;;;;;;7372512;19;20357;-73
2022/05/28 12:50:40;;;;;;;2.50;1.20;;;16.60;99.90;;;;;;7373365;19;20381;-73
2022/05/28 12:53:17;;;;;;;1.98;1.05;;;16.40;99.90;;;;;;7368748;19;20700;-74
2022/05/28 12:55:42;;;;;;;1.85;1.25;;;16.20;99.90;;;;;;7371961;19;20639;-72
2022/05/28 12:58:23;;;;;;;2.33;1.02;;;15.90;99.90;;;;;;7369281;19;20975;-72
2022/05/28 13:00:54;;;;;;;3.35;1.23;;;15.80;99.90;;;;;;7369045;19;20348;-73
2022/05/28 13:03:22;;;;;;;3.05;1.27;;;15.90;99.90;;;;;;7370962;19;20360;-73
2022/05/28 13:05:50;;;;;;;1.50;1.05;;;16.00;99.90;;;;;;7369697;19;20364;-73
2022/05/28 13:08:25;;;;;;;2.63;1.10;;;16.10;99.90;;;;;;7371562;19;20397;-73
2022/05/28 13:10:58;;;;;;;1.40;0.95;;;15.90;99.90;;;;;;7369049;19;20340;-74
2022/05/28 13:13:45;;;;;;;0.80;0.80;;;16.30;99.90;;;;;;7368606;19;20353;-75
2022/05/28 13:16:33;;;;;;;1.55;1.10;;;17.20;99.90;;;;;;7372468;19;20366;-74
2022/05/28 13:19:10;;;;;;;1.50;1.20;;;16.90;99.90;;;;;;7367894;19;20360;-73
2022/05/28 13:22:17;;;;;;;1.63;0.93;;;16.60;99.90;;;;;;7368035;19;20361;-73
2022/05/28 13:24:55;;;;;;;2.83;1.10;;;17.00;99.90;;;;;;7372063;19;20360;-72